Miesville, Minnesota
Current Conditions -  °F | °C
As of 2:33 PM on Saturday 25 Oct 2014 (Local Time) from KSYN Reporting Station
Clear Clear  
Wind Chill: 64°   Ceiling: Unl
Heat Index: 64°   Visibility: 10mi
Dew Point: 28°   Wind: 16mph
Humidity: 26%   Direction: 300°WNW
Pressure: 30.03"   Gusts: 23mph
Location:  44.4763°N, 92.8054°W
Report Text: KSYN 251933Z AUTO 30014G20KT 10SM CLR 18/M02 A3003 RMK AO2 T01771020
Loading
Personal Weather Stations






























Interactive Weather Map
Tropical Storm Tracking
New forecast layout! Learn more

10-Day Weather Forecast

Advertisements
Track Severe Weather on mobile